createdAt,value
2022-08-18T00:00:40.792Z,98635.81
2022-08-18T00:03:56.966Z,98629.63
2022-08-18T00:06:36.688Z,98639.06
2022-08-18T00:09:21.716Z,98641.47
2022-08-18T00:12:16.471Z,98638.09
2022-08-18T00:15:04.260Z,98630.84
2022-08-18T00:17:49.305Z,98640.47
2022-08-18T00:20:34.257Z,98637.69
2022-08-18T00:23:19.630Z,98641.81
2022-08-18T00:26:05.319Z,98649.34
2022-08-18T00:28:50.431Z,98660.50
2022-08-18T00:31:35.629Z,98656.38
2022-08-18T00:34:20.997Z,98653.28
2022-08-18T00:37:06.753Z,98650.97
2022-08-18T00:39:53.409Z,98653.34
2022-08-18T00:43:05.953Z,98657.78
2022-08-18T00:45:50.936Z,98662.22
2022-08-18T00:48:36.481Z,98659.88
2022-08-18T00:51:58.661Z,98662.78
2022-08-18T00:54:46.054Z,98660.72
2022-08-18T00:57:31.065Z,98662.06
2022-08-18T01:00:16.555Z,98658.19
2022-08-18T01:03:13.989Z,98659.25
2022-08-18T01:06:26.680Z,98649.59
2022-08-18T01:09:11.874Z,98651.22
2022-08-18T01:11:56.564Z,98655.19
2022-08-18T01:14:41.573Z,98650.22
2022-08-18T01:17:45.892Z,98642.72
2022-08-18T01:21:00.099Z,98644.06
2022-08-18T01:23:46.898Z,98651.84
2022-08-18T01:26:37.225Z,98653.94
2022-08-18T01:29:29.285Z,98650.06
2022-08-18T01:32:19.164Z,98649.06
2022-08-18T01:35:08.313Z,98644.94
2022-08-18T01:37:54.295Z,98640.78
2022-08-18T01:41:17.333Z,98650.16
2022-08-18T01:43:46.117Z,98655.19
2022-08-18T01:46:35.615Z,98648.41
2022-08-18T01:49:21.068Z,98647.63
2022-08-18T01:52:06.819Z,98652.84
2022-08-18T01:54:52.696Z,98657.56
2022-08-18T01:57:44.408Z,98657.84
2022-08-18T02:00:29.558Z,98655.50
2022-08-18T02:03:14.722Z,98652.41
2022-08-18T02:06:04.311Z,98650.34
2022-08-18T02:08:53.442Z,98652.97
2022-08-18T02:11:39.112Z,98645.44
2022-08-18T02:14:25.026Z,98649.56
2022-08-18T02:17:13.367Z,98642.28
2022-08-18T02:19:58.330Z,98645.16
2022-08-18T02:22:45.979Z,98645.94
2022-08-18T02:25:30.735Z,98647.75
2022-08-18T02:28:16.644Z,98640.25
2022-08-18T02:31:11.410Z,98643.88
2022-08-18T02:33:56.861Z,98640.00
2022-08-18T02:36:41.661Z,98646.28
2022-08-18T02:39:27.923Z,98635.91
2022-08-18T02:42:14.163Z,98643.50
2022-08-18T02:44:59.331Z,98648.22
2022-08-18T02:47:45.584Z,98646.94
2022-08-18T02:50:30.689Z,98645.16
2022-08-18T02:53:25.042Z,98652.97
2022-08-18T02:56:18.548Z,98645.44
2022-08-18T02:59:27.065Z,98633.50
2022-08-18T03:02:12.140Z,98648.31
2022-08-18T03:04:56.862Z,98647.56
2022-08-18T03:07:42.419Z,98659.78
2022-08-18T03:10:31.407Z,98657.94
2022-08-18T03:13:19.063Z,98661.31
2022-08-18T03:16:04.052Z,98667.53
2022-08-18T03:18:48.686Z,98675.81
2022-08-18T03:21:35.521Z,98674.22
2022-08-18T03:24:22.882Z,98673.66
2022-08-18T03:27:08.660Z,98676.97
2022-08-18T03:29:53.672Z,98682.13
2022-08-18T03:32:38.498Z,98679.97
2022-08-18T03:35:30.550Z,98683.78
2022-08-18T03:38:15.915Z,98688.59
2022-08-18T03:41:01.173Z,98690.53
2022-08-18T03:43:51.338Z,98688.59
2022-08-18T03:46:36.949Z,98687.34
2022-08-18T03:49:22.360Z,98693.31
2022-08-18T03:52:09.156Z,98690.16
2022-08-18T03:54:54.265Z,98684.88
2022-08-18T03:57:39.413Z,98693.84
2022-08-18T04:00:26.849Z,98701.50
2022-08-18T04:03:11.937Z,98695.63
2022-08-18T04:05:57.266Z,98708.19
2022-08-18T04:08:43.724Z,98702.13
2022-08-18T04:11:31.028Z,98700.22
2022-08-18T04:14:32.248Z,98708.09
2022-08-18T04:17:24.009Z,98717.22
2022-08-18T04:20:11.272Z,98712.88
2022-08-18T04:22:56.320Z,98714.69
2022-08-18T04:25:41.117Z,98715.22
2022-08-18T04:28:26.726Z,98718.19
2022-08-18T04:31:14.966Z,98718.28
2022-08-18T04:34:01.856Z,98723.50
2022-08-18T04:36:46.616Z,98716.59
2022-08-18T04:39:31.940Z,98717.56
2022-08-18T04:42:17.334Z,98722.88
2022-08-18T04:45:02.495Z,98727.03
2022-08-18T04:47:47.446Z,98718.41
2022-08-18T04:50:32.297Z,98723.06
2022-08-18T04:53:35.788Z,98713.38
2022-08-18T04:56:27.682Z,98718.44
2022-08-18T04:59:13.877Z,98721.56
2022-08-18T05:02:05.138Z,98723.09
2022-08-18T05:04:50.277Z,98722.56
2022-08-18T05:07:35.606Z,98720.00
2022-08-18T05:10:20.649Z,98718.03
2022-08-18T05:13:06.030Z,98712.66
2022-08-18T05:16:16.756Z,98714.63
2022-08-18T05:19:06.386Z,98710.63
2022-08-18T05:21:59.601Z,98717.91
2022-08-18T05:24:50.880Z,98725.78
2022-08-18T05:27:39.624Z,98728.88
2022-08-18T05:30:24.984Z,98727.50
2022-08-18T05:33:10.786Z,98729.53
2022-08-18T05:36:05.457Z,98728.34
2022-08-18T05:39:15.273Z,98731.44
2022-08-18T05:42:08.894Z,98733.00
2022-08-18T05:44:55.215Z,98729.28
2022-08-18T05:47:40.690Z,98734.97
2022-08-18T05:50:27.081Z,98730.50
2022-08-18T05:53:14.564Z,98735.00
2022-08-18T05:56:23.229Z,98738.69
2022-08-18T05:59:10.913Z,98744.06
2022-08-18T06:02:19.537Z,98743.59
2022-08-18T06:05:12.968Z,98742.22
2022-08-18T06:08:12.262Z,98735.22
2022-08-18T06:10:57.367Z,98743.53
2022-08-18T06:13:43.159Z,98743.38
2022-08-18T06:16:52.889Z,98745.03
2022-08-18T06:20:09.764Z,98741.34
2022-08-18T06:23:03.154Z,98739.03
2022-08-18T06:26:34.222Z,98735.94
2022-08-18T06:29:57.289Z,98725.22
2022-08-18T06:33:07.199Z,98737.84
2022-08-18T06:36:02.103Z,98725.75
2022-08-18T06:39:04.420Z,98724.34
2022-08-18T06:41:50.878Z,98731.41
2022-08-18T06:44:55.388Z,98718.72
2022-08-18T06:47:44.503Z,98727.16
2022-08-18T06:50:51.638Z,98730.31
2022-08-18T06:54:21.536Z,98732.69
2022-08-18T06:57:23.332Z,98735.03
2022-08-18T07:00:31.462Z,98732.69
2022-08-18T07:03:21.492Z,98734.38
2022-08-18T07:06:16.969Z,98727.97
2022-08-18T07:09:32.409Z,98731.81
2022-08-18T07:12:32.126Z,98734.53
2022-08-18T07:15:24.486Z,98725.97
2022-08-18T07:18:10.365Z,98730.38
2022-08-18T07:21:00.494Z,98723.66
2022-08-18T07:24:23.822Z,98719.50
2022-08-18T07:27:16.821Z,98716.41
2022-08-18T07:30:08.299Z,98718.56
2022-08-18T07:33:18.684Z,98719.81
2022-08-18T07:36:06.531Z,98719.88
2022-08-18T07:38:57.696Z,98721.97
2022-08-18T07:42:08.933Z,98717.03
2022-08-18T07:45:17.345Z,98718.25
2022-08-18T07:48:38.253Z,98715.13
2022-08-18T07:51:53.624Z,98715.63
2022-08-18T07:54:57.192Z,98714.03
2022-08-18T07:58:14.920Z,98720.25
2022-08-18T08:01:20.371Z,98713.13
2022-08-18T08:04:25.387Z,98709.84
2022-08-18T08:07:28.310Z,98712.78
2022-08-18T08:10:28.778Z,98714.91
2022-08-18T08:13:44.128Z,98713.56
2022-08-18T08:16:41.196Z,98716.69
2022-08-18T08:20:00.801Z,98713.97
2022-08-18T08:23:02.928Z,98716.88
2022-08-18T08:25:56.353Z,98716.94
2022-08-18T08:28:55.973Z,98719.50
2022-08-18T08:31:47.693Z,98713.78
2022-08-18T08:34:51.732Z,98723.69
2022-08-18T08:37:54.729Z,98714.69
2022-08-18T08:41:40.708Z,98713.44
2022-08-18T08:44:59.117Z,98722.69
2022-08-18T08:48:09.816Z,98718.50
2022-08-18T08:51:03.085Z,98717.03
2022-08-18T08:54:02.501Z,98716.63
2022-08-18T08:56:51.808Z,98721.88
2022-08-18T08:59:38.969Z,98732.63
2022-08-18T09:02:47.470Z,98733.59
2022-08-18T09:05:45.215Z,98735.97
2022-08-18T09:08:42.589Z,98734.22
2022-08-18T09:12:02.321Z,98732.47
2022-08-18T09:15:02.739Z,98729.16
2022-08-18T09:18:12.476Z,98745.03
2022-08-18T09:21:37.904Z,98736.38
2022-08-18T09:24:31.220Z,98740.09
2022-08-18T09:27:39.877Z,98743.50
2022-08-18T09:30:42.428Z,98748.66
2022-08-18T09:33:33.328Z,98749.06
2022-08-18T09:36:46.157Z,98735.09
2022-08-18T09:40:29.471Z,98737.38
2022-08-18T09:43:36.694Z,98732.44
2022-08-18T09:46:41.071Z,98738.53
2022-08-18T09:49:28.609Z,98743.84
2022-08-18T09:52:21.322Z,98736.63
2022-08-18T09:55:18.422Z,98738.22
2022-08-18T09:58:15.499Z,98743.59
2022-08-18T10:01:21.001Z,98742.09
2022-08-18T10:04:15.873Z,98740.16
2022-08-18T10:07:21.873Z,98743.22
2022-08-18T10:10:57.012Z,98745.47
2022-08-18T10:13:37.527Z,98744.28
2022-08-18T10:16:31.162Z,98743.44
2022-08-18T10:22:42.906Z,98738.50
2022-08-18T10:25:39.197Z,98740.19
2022-08-18T10:28:55.730Z,98742.06
2022-08-18T10:31:58.616Z,98739.75
2022-08-18T10:34:52.741Z,98744.94
2022-08-18T10:37:49.146Z,98744.66
2022-08-18T10:40:37.486Z,98741.13
2022-08-18T10:43:56.013Z,98743.69
2022-08-18T10:46:46.628Z,98752.41
2022-08-18T10:49:32.632Z,98754.09
2022-08-18T10:52:26.498Z,98749.41
2022-08-18T10:55:49.116Z,98745.72
2022-08-18T10:58:40.712Z,98745.72
2022-08-18T11:01:35.591Z,98756.84
2022-08-18T11:04:36.950Z,98770.81
2022-08-18T11:13:55.636Z,98762.66
2022-08-18T11:16:43.338Z,98764.75
2022-08-18T11:19:34.683Z,98770.59
2022-08-18T11:25:37.665Z,98763.50
2022-08-18T11:28:23.102Z,98763.47
2022-08-18T11:31:16.216Z,98766.63
2022-08-18T11:34:19.712Z,98754.97
2022-08-18T11:37:49.638Z,98758.00
2022-08-18T11:44:02.033Z,98754.06
2022-08-18T11:46:51.964Z,98745.72
2022-08-18T11:49:36.922Z,98746.50
2022-08-18T11:52:32.983Z,98743.44
2022-08-18T11:55:29.514Z,98746.56
2022-08-18T11:58:45.389Z,98738.16
2022-08-18T12:01:37.464Z,98747.31
2022-08-18T12:04:26.796Z,98746.81
2022-08-18T12:10:30.085Z,98736.47
2022-08-18T12:13:23.334Z,98740.75
2022-08-18T12:16:14.130Z,98735.63
2022-08-18T12:18:59.488Z,98730.88
2022-08-18T12:21:58.417Z,98725.16
2022-08-18T12:24:45.353Z,98724.84
2022-08-18T12:27:33.715Z,98718.38
2022-08-18T12:30:19.437Z,98723.50
2022-08-18T12:33:10.280Z,98724.44
2022-08-18T12:35:59.137Z,98718.91
2022-08-18T12:38:45.104Z,98717.66
2022-08-18T12:41:37.431Z,98713.88
2022-08-18T12:44:22.926Z,98712.22
2022-08-18T12:47:15.034Z,98718.28
2022-08-18T12:49:59.900Z,98714.34
2022-08-18T12:52:46.414Z,98709.41
2022-08-18T12:55:37.713Z,98711.97
2022-08-18T12:58:29.121Z,98710.59
2022-08-18T13:01:14.108Z,98703.97
2022-08-18T13:04:11.187Z,98713.91
2022-08-18T13:07:06.052Z,98707.81
2022-08-18T13:09:53.945Z,98710.44
2022-08-18T13:12:39.222Z,98710.72
2022-08-18T13:15:26.229Z,98714.03
2022-08-18T13:18:14.359Z,98715.16
2022-08-18T13:21:00.530Z,98715.59
2022-08-18T13:23:45.448Z,98709.00
2022-08-18T13:26:35.530Z,98711.50
2022-08-18T13:29:20.463Z,98702.78
2022-08-18T13:32:08.737Z,98707.25
2022-08-18T13:34:53.755Z,98701.28
2022-08-18T13:37:41.680Z,98714.47
2022-08-18T13:40:29.471Z,98719.44
2022-08-18T13:43:17.486Z,98723.91
2022-08-18T13:46:04.221Z,98714.66
2022-08-18T13:48:48.900Z,98718.81
2022-08-18T13:51:34.067Z,98720.97
2022-08-18T13:54:31.286Z,98722.88
2022-08-18T13:57:16.641Z,98721.84
2022-08-18T14:00:01.913Z,98721.25
2022-08-18T14:02:56.496Z,98724.81
2022-08-18T14:06:01.047Z,98731.53
2022-08-18T14:08:46.296Z,98722.75
2022-08-18T14:11:33.598Z,98722.19
2022-08-18T14:14:20.758Z,98720.19
2022-08-18T14:17:05.644Z,98723.63
2022-08-18T14:20:15.512Z,98725.81
2022-08-18T14:23:33.210Z,98719.19
2022-08-18T14:26:36.893Z,98717.03
2022-08-18T14:29:46.428Z,98726.75
2022-08-18T14:32:30.006Z,98720.28
2022-08-18T14:36:03.816Z,98712.72
2022-08-18T14:38:24.161Z,98717.69
2022-08-18T14:41:12.371Z,98707.66
2022-08-18T14:44:12.999Z,98712.00
2022-08-18T14:46:59.971Z,98712.31
2022-08-18T14:49:47.985Z,98711.88
2022-08-18T14:52:33.139Z,98706.34
2022-08-18T14:55:18.625Z,98714.03
2022-08-18T14:58:07.307Z,98701.28
2022-08-18T15:00:56.213Z,98706.78
2022-08-18T15:03:41.980Z,98699.22
2022-08-18T15:06:30.766Z,98703.44
2022-08-18T15:09:16.327Z,98697.63
2022-08-18T15:12:01.929Z,98695.06
2022-08-18T15:14:48.100Z,98701.41
2022-08-18T15:17:40.980Z,98696.22
2022-08-18T15:20:29.490Z,98698.06
2022-08-18T15:23:33.626Z,98699.31
2022-08-18T15:26:25.821Z,98690.97
2022-08-18T15:29:11.336Z,98697.06
2022-08-18T15:32:05.232Z,98701.94
2022-08-18T15:34:51.463Z,98693.84
2022-08-18T15:37:36.893Z,98694.47
2022-08-18T15:40:35.965Z,98693.53
2022-08-18T15:43:29.065Z,98686.16
2022-08-18T15:46:17.020Z,98680.66
2022-08-18T15:49:10.360Z,98681.88
2022-08-18T15:52:00.248Z,98677.03
2022-08-18T15:54:50.598Z,98676.72
2022-08-18T15:57:40.121Z,98666.47
2022-08-18T16:00:29.104Z,98678.22
2022-08-18T16:03:16.388Z,98668.25
2022-08-18T16:06:00.923Z,98673.47
2022-08-18T16:08:46.365Z,98678.97
2022-08-18T16:11:31.631Z,98677.38
2022-08-18T16:14:16.729Z,98677.75
2022-08-18T16:17:06.040Z,98679.50
2022-08-18T16:19:54.950Z,98677.59
2022-08-18T16:22:39.946Z,98686.91
2022-08-18T16:25:25.753Z,98680.47
2022-08-18T16:28:13.893Z,98687.91
2022-08-18T16:31:00.016Z,98692.56
2022-08-18T16:33:45.461Z,98683.81
2022-08-18T16:36:30.160Z,98678.84
2022-08-18T16:39:15.088Z,98685.59
2022-08-18T16:42:00.878Z,98690.44
2022-08-18T16:44:46.126Z,98688.34
2022-08-18T16:47:37.129Z,98689.91
2022-08-18T16:50:24.288Z,98681.13
2022-08-18T16:53:09.489Z,98678.38
2022-08-18T16:55:55.041Z,98683.53
2022-08-18T16:58:58.470Z,98688.97
2022-08-18T17:02:09.467Z,98690.13
2022-08-18T17:04:54.514Z,98691.50
2022-08-18T17:07:39.331Z,98684.88
2022-08-18T17:10:24.226Z,98685.66
2022-08-18T17:13:12.305Z,98688.91
2022-08-18T17:15:57.361Z,98693.09
2022-08-18T17:18:42.520Z,98700.47
2022-08-18T17:21:29.984Z,98704.75
2022-08-18T17:24:15.868Z,98712.34
2022-08-18T17:27:27.150Z,98704.91
2022-08-18T17:30:17.802Z,98721.69
2022-08-18T17:33:07.809Z,98709.38
2022-08-18T17:35:55.361Z,98716.75
2022-08-18T17:38:51.152Z,98714.16
2022-08-18T17:41:56.130Z,98717.88
2022-08-18T17:44:52.367Z,98724.50
2022-08-18T17:48:01.936Z,98724.38
2022-08-18T17:51:15.009Z,98722.03
2022-08-18T17:54:15.472Z,98733.63
2022-08-18T17:57:07.810Z,98734.03
2022-08-18T18:00:07.059Z,98740.91
2022-08-18T18:02:56.125Z,98746.97
2022-08-18T18:05:46.795Z,98756.03
2022-08-18T18:08:56.461Z,98751.19
2022-08-18T18:11:45.623Z,98772.41
2022-08-18T18:14:38.226Z,98765.19
2022-08-18T18:17:30.947Z,98765.25
2022-08-18T18:20:41.118Z,98769.16
2022-08-18T18:23:30.470Z,98763.44
2022-08-18T18:26:25.494Z,98772.03
2022-08-18T18:29:12.683Z,98769.41
2022-08-18T18:32:21.790Z,98771.13
2022-08-18T18:35:16.059Z,98769.31
2022-08-18T18:38:05.077Z,98776.78
2022-08-18T18:41:08.125Z,98782.66
2022-08-18T18:44:08.953Z,98778.81
2022-08-18T18:47:10.387Z,98788.88
2022-08-18T18:50:08.989Z,98788.25
2022-08-18T18:53:00.386Z,98780.06
2022-08-18T18:56:00.968Z,98781.16
2022-08-18T18:59:17.947Z,98773.44
2022-08-18T19:02:37.180Z,98780.72
2022-08-18T19:05:30.536Z,98779.63
2022-08-18T19:08:25.698Z,98776.28
2022-08-18T19:11:19.163Z,98782.78
2022-08-18T19:14:20.178Z,98782.63
2022-08-18T19:17:23.421Z,98775.06
2022-08-18T19:20:23.098Z,98783.72
2022-08-18T19:23:45.011Z,98782.34
2022-08-18T19:26:46.015Z,98783.44
2022-08-18T19:29:37.766Z,98779.25
2022-08-18T19:32:31.934Z,98776.78
2022-08-18T19:35:35.318Z,98771.66
2022-08-18T19:38:21.130Z,98783.09
2022-08-18T19:41:38.974Z,98781.38
2022-08-18T19:44:33.173Z,98787.34
2022-08-18T19:47:31.031Z,98792.75
2022-08-18T19:50:25.996Z,98788.44
2022-08-18T19:53:38.772Z,98784.56
2022-08-18T19:56:38.816Z,98780.22
2022-08-18T19:59:36.041Z,98783.47
2022-08-18T20:02:37.701Z,98785.91
2022-08-18T20:06:33.278Z,98775.28
2022-08-18T20:09:19.532Z,98779.41
2022-08-18T20:12:27.330Z,98770.63
2022-08-18T20:15:21.035Z,98770.47
2022-08-18T20:18:29.167Z,98772.91
2022-08-18T20:21:14.029Z,98765.19
2022-08-18T20:24:17.733Z,98768.41
2022-08-18T20:27:19.231Z,98767.47
2022-08-18T20:30:27.043Z,98767.78
2022-08-18T20:33:22.070Z,98766.56
2022-08-18T20:36:32.067Z,98762.66
2022-08-18T20:39:42.138Z,98757.75
2022-08-18T20:42:33.847Z,98770.06
2022-08-18T20:45:28.955Z,98765.72
2022-08-18T20:48:24.502Z,98768.94
2022-08-18T20:51:13.476Z,98760.88
2022-08-18T20:54:13.288Z,98759.84
2022-08-18T20:57:02.054Z,98760.31
2022-08-18T20:59:54.830Z,98757.09
2022-08-18T21:02:40.645Z,98762.06
2022-08-18T21:05:34.356Z,98754.19
2022-08-18T21:08:26.857Z,98759.91
2022-08-18T21:11:42.530Z,98762.50
2022-08-18T21:14:30.182Z,98758.66
2022-08-18T21:17:15.259Z,98764.50
2022-08-18T21:20:09.101Z,98764.03
2022-08-18T21:23:03.673Z,98771.19
2022-08-18T21:25:53.224Z,98769.00
2022-08-18T21:28:41.781Z,98770.97
2022-08-18T21:31:43.715Z,98771.41
2022-08-18T21:34:34.964Z,98770.44
2022-08-18T21:37:20.551Z,98781.53
2022-08-18T21:40:06.118Z,98780.28
2022-08-18T21:42:51.770Z,98782.41
2022-08-18T21:45:47.825Z,98773.63
2022-08-18T21:48:37.460Z,98778.22
2022-08-18T21:51:30.538Z,98779.09
2022-08-18T21:54:22.459Z,98780.47
2022-08-18T21:57:18.197Z,98782.31
2022-08-18T22:00:20.182Z,98780.16
2022-08-18T22:03:24.640Z,98786.19
2022-08-18T22:06:15.386Z,98781.88
2022-08-18T22:09:34.154Z,98784.69
2022-08-18T22:12:51.121Z,98779.16
2022-08-18T22:15:45.456Z,98779.63
2022-08-18T22:18:39.242Z,98775.66
2022-08-18T22:21:54.984Z,98780.88
2022-08-18T22:24:39.893Z,98780.09
2022-08-18T22:27:26.333Z,98776.53
2022-08-18T22:30:11.307Z,98768.34
2022-08-18T22:32:56.335Z,98777.88
2022-08-18T22:35:44.450Z,98767.34
2022-08-18T22:38:30.274Z,98768.50
2022-08-18T22:41:16.969Z,98781.22
2022-08-18T22:44:04.815Z,98783.78
2022-08-18T22:46:50.120Z,98781.56
2022-08-18T22:49:36.561Z,98773.31
2022-08-18T22:52:31.257Z,98776.34
2022-08-18T22:55:22.003Z,98777.34
2022-08-18T22:58:09.517Z,98775.91
2022-08-18T23:01:05.314Z,98782.59
2022-08-18T23:03:51.236Z,98782.97
2022-08-18T23:06:36.172Z,98790.44
2022-08-18T23:09:24.741Z,98786.88
2022-08-18T23:12:14.662Z,98787.47
2022-08-18T23:15:05.976Z,98787.56
2022-08-18T23:17:50.619Z,98788.72
2022-08-18T23:20:37.435Z,98786.97
2022-08-18T23:23:27.863Z,98786.00
2022-08-18T23:26:12.819Z,98780.88
2022-08-18T23:28:57.520Z,98792.88
2022-08-18T23:31:44.319Z,98799.44
2022-08-18T23:34:29.046Z,98792.97
2022-08-18T23:37:13.985Z,98792.47
2022-08-18T23:39:59.385Z,98796.13
2022-08-18T23:42:45.549Z,98795.34
2022-08-18T23:45:33.848Z,98788.09
2022-08-18T23:48:23.556Z,98793.41
2022-08-18T23:51:08.485Z,98795.81
2022-08-18T23:53:56.296Z,98791.94
2022-08-18T23:56:41.378Z,98785.75
2022-08-18T23:59:27.334Z,98791.53
